Terminal Aerodrome Forecast
Issued by NWS Dallas/Fort Worth, TX

Home | Current Version | Previous Version | Text Only | Print | Product List | Glossary On
Versions: 1 2 3 4 5 6 7 8 9 10 11 12 13 14 15 16 17 18 19 20 21 22 23 24 25
000
FTUS44 KFWD 280500
TAFACT
TAF
KACT 280525Z 2806/2906 16009KT P6SM FEW080
     FM281600 04010KT P6SM SCT070
     FM282100 03012KT P6SM VCSH SCT080
     FM290000 05008KT P6SM SCT100=

USA.gov is the U.S. government's official web portal to all federal, state and local government web resources and services.